sensor_id;sensor_type;location;lat;lon;timestamp;P1;durP1;ratioP1;P2;durP2;ratioP2
1569;SDS011;778;50.120;8.698;2022-09-01T00:00:44;6.37;;;3.10;;
1569;SDS011;778;50.120;8.698;2022-09-01T00:03:14;2.60;;;2.40;;
1569;SDS011;778;50.120;8.698;2022-09-01T00:05:46;2.60;;;2.03;;
1569;SDS011;778;50.120;8.698;2022-09-01T00:08:22;5.67;;;2.70;;
1569;SDS011;778;50.120;8.698;2022-09-01T00:10:51;2.60;;;2.40;;
1569;SDS011;778;50.120;8.698;2022-09-01T00:13:20;2.90;;;2.70;;
1569;SDS011;778;50.120;8.698;2022-09-01T00:15:48;2.60;;;2.40;;
1569;SDS011;778;50.120;8.698;2022-09-01T00:18:17;2.40;;;2.20;;
1569;SDS011;778;50.120;8.698;2022-09-01T00:20:47;2.33;;;2.23;;
1569;SDS011;778;50.120;8.698;2022-09-01T00:23:15;3.10;;;2.87;;
1569;SDS011;778;50.120;8.698;2022-09-01T00:25:44;3.67;;;3.37;;
1569;SDS011;778;50.120;8.698;2022-09-01T00:28:12;3.03;;;2.83;;
1569;SDS011;778;50.120;8.698;2022-09-01T00:30:41;3.33;;;2.43;;
1569;SDS011;778;50.120;8.698;2022-09-01T00:33:09;3.17;;;2.37;;
1569;SDS011;778;50.120;8.698;2022-09-01T00:35:40;6.60;;;3.60;;
1569;SDS011;778;50.120;8.698;2022-09-01T00:38:10;2.80;;;2.33;;
1569;SDS011;778;50.120;8.698;2022-09-01T00:40:38;3.33;;;2.40;;
1569;SDS011;778;50.120;8.698;2022-09-01T00:43:10;2.97;;;2.23;;
1569;SDS011;778;50.120;8.698;2022-09-01T00:45:41;2.50;;;2.30;;
1569;SDS011;778;50.120;8.698;2022-09-01T00:48:10;2.50;;;2.30;;
1569;SDS011;778;50.120;8.698;2022-09-01T00:50:40;2.30;;;2.10;;
1569;SDS011;778;50.120;8.698;2022-09-01T00:53:16;2.67;;;2.47;;
1569;SDS011;778;50.120;8.698;2022-09-01T00:55:44;3.63;;;2.40;;
1569;SDS011;778;50.120;8.698;2022-09-01T00:58:13;2.53;;;2.33;;
1569;SDS011;778;50.120;8.698;2022-09-01T01:00:45;2.63;;;2.43;;
1569;SDS011;778;50.120;8.698;2022-09-01T01:03:16;2.40;;;2.17;;
1569;SDS011;778;50.120;8.698;2022-09-01T01:05:47;2.57;;;2.37;;
1569;SDS011;778;50.120;8.698;2022-09-01T01:08:23;2.50;;;2.37;;
1569;SDS011;778;50.120;8.698;2022-09-01T01:10:59;2.70;;;2.50;;
1569;SDS011;778;50.120;8.698;2022-09-01T01:13:34;3.00;;;2.13;;
1569;SDS011;778;50.120;8.698;2022-09-01T01:16:16;2.13;;;2.03;;
1569;SDS011;778;50.120;8.698;2022-09-01T01:18:45;2.33;;;2.13;;
1569;SDS011;778;50.120;8.698;2022-09-01T01:21:17;3.00;;;2.80;;
1569;SDS011;778;50.120;8.698;2022-09-01T01:26:48;3.50;;;2.73;;
1569;SDS011;778;50.120;8.698;2022-09-01T01:29:17;3.00;;;2.30;;
1569;SDS011;778;50.120;8.698;2022-09-01T01:31:47;2.90;;;2.33;;
1569;SDS011;778;50.120;8.698;2022-09-01T01:34:19;2.47;;;2.33;;
1569;SDS011;778;50.120;8.698;2022-09-01T01:36:49;2.50;;;2.30;;
1569;SDS011;778;50.120;8.698;2022-09-01T01:39:19;4.67;;;2.70;;
1569;SDS011;778;50.120;8.698;2022-09-01T01:41:51;2.70;;;2.50;;
1569;SDS011;778;50.120;8.698;2022-09-01T01:44:23;4.10;;;2.40;;
1569;SDS011;778;50.120;8.698;2022-09-01T01:46:58;2.63;;;2.43;;
1569;SDS011;778;50.120;8.698;2022-09-01T01:49:29;3.17;;;2.83;;
1569;SDS011;778;50.120;8.698;2022-09-01T01:51:58;2.50;;;2.30;;
1569;SDS011;778;50.120;8.698;2022-09-01T01:54:31;2.60;;;2.40;;
1569;SDS011;778;50.120;8.698;2022-09-01T01:57:00;2.67;;;2.47;;
1569;SDS011;778;50.120;8.698;2022-09-01T01:59:30;2.67;;;2.47;;
1569;SDS011;778;50.120;8.698;2022-09-01T02:01:58;3.17;;;2.30;;
1569;SDS011;778;50.120;8.698;2022-09-01T02:04:30;2.90;;;2.70;;
1569;SDS011;778;50.120;8.698;2022-09-01T02:07:07;5.27;;;2.70;;
1569;SDS011;778;50.120;8.698;2022-09-01T02:09:39;2.40;;;2.13;;
1569;SDS011;778;50.120;8.698;2022-09-01T02:12:13;2.73;;;2.53;;
1569;SDS011;778;50.120;8.698;2022-09-01T02:14:45;3.70;;;2.70;;
1569;SDS011;778;50.120;8.698;2022-09-01T02:17:14;3.87;;;2.10;;
1569;SDS011;778;50.120;8.698;2022-09-01T02:19:43;2.50;;;2.30;;
1569;SDS011;778;50.120;8.698;2022-09-01T02:22:12;3.07;;;2.37;;
1569;SDS011;778;50.120;8.698;2022-09-01T02:24:42;2.93;;;2.70;;
1569;SDS011;778;50.120;8.698;2022-09-01T02:27:14;6.80;;;2.97;;
1569;SDS011;778;50.120;8.698;2022-09-01T02:29:52;3.13;;;2.47;;
1569;SDS011;778;50.120;8.698;2022-09-01T02:32:21;3.07;;;2.87;;
1569;SDS011;778;50.120;8.698;2022-09-01T02:34:49;4.97;;;3.67;;
1569;SDS011;778;50.120;8.698;2022-09-01T02:37:27;3.77;;;3.47;;
1569;SDS011;778;50.120;8.698;2022-09-01T02:39:57;4.10;;;3.70;;
1569;SDS011;778;50.120;8.698;2022-09-01T02:42:25;6.40;;;4.30;;
1569;SDS011;778;50.120;8.698;2022-09-01T02:44:55;4.60;;;4.03;;
1569;SDS011;778;50.120;8.698;2022-09-01T02:47:24;4.03;;;3.73;;
1569;SDS011;778;50.120;8.698;2022-09-01T02:49:55;4.40;;;4.00;;
1569;SDS011;778;50.120;8.698;2022-09-01T02:52:28;5.30;;;3.50;;
1569;SDS011;778;50.120;8.698;2022-09-01T02:55:06;4.00;;;3.50;;
1569;SDS011;778;50.120;8.698;2022-09-01T02:57:35;4.40;;;4.00;;
1569;SDS011;778;50.120;8.698;2022-09-01T03:00:05;4.30;;;3.90;;
1569;SDS011;778;50.120;8.698;2022-09-01T03:02:47;3.40;;;3.10;;
1569;SDS011;778;50.120;8.698;2022-09-01T03:05:18;9.53;;;3.30;;
1569;SDS011;778;50.120;8.698;2022-09-01T03:07:52;3.13;;;2.80;;
1569;SDS011;778;50.120;8.698;2022-09-01T03:10:28;3.23;;;2.93;;
1569;SDS011;778;50.120;8.698;2022-09-01T03:13:02;2.87;;;2.67;;
1569;SDS011;778;50.120;8.698;2022-09-01T03:15:34;3.40;;;2.70;;
1569;SDS011;778;50.120;8.698;2022-09-01T03:18:04;3.40;;;2.87;;
1569;SDS011;778;50.120;8.698;2022-09-01T03:20:36;3.03;;;2.83;;
1569;SDS011;778;50.120;8.698;2022-09-01T03:23:09;3.00;;;2.80;;
1569;SDS011;778;50.120;8.698;2022-09-01T03:25:47;4.40;;;2.97;;
1569;SDS011;778;50.120;8.698;2022-09-01T03:28:16;3.03;;;2.83;;
1569;SDS011;778;50.120;8.698;2022-09-01T03:30:45;2.87;;;2.67;;
1569;SDS011;778;50.120;8.698;2022-09-01T03:33:17;3.10;;;2.90;;
1569;SDS011;778;50.120;8.698;2022-09-01T03:35:47;4.33;;;2.90;;
1569;SDS011;778;50.120;8.698;2022-09-01T03:38:17;3.23;;;2.70;;
1569;SDS011;778;50.120;8.698;2022-09-01T03:40:53;2.80;;;2.60;;
1569;SDS011;778;50.120;8.698;2022-09-01T03:43:29;2.60;;;2.40;;
1569;SDS011;778;50.120;8.698;2022-09-01T03:46:02;2.60;;;2.40;;
1569;SDS011;778;50.120;8.698;2022-09-01T03:48:31;2.70;;;2.50;;
1569;SDS011;778;50.120;8.698;2022-09-01T03:51:00;3.30;;;2.67;;
1569;SDS011;778;50.120;8.698;2022-09-01T03:53:30;2.87;;;2.57;;
1569;SDS011;778;50.120;8.698;2022-09-01T03:56:05;2.23;;;2.13;;
1569;SDS011;778;50.120;8.698;2022-09-01T03:58:34;3.00;;;2.80;;
1569;SDS011;778;50.120;8.698;2022-09-01T04:01:03;2.23;;;2.03;;
1569;SDS011;778;50.120;8.698;2022-09-01T04:03:36;2.80;;;2.60;;
1569;SDS011;778;50.120;8.698;2022-09-01T04:06:07;2.90;;;2.60;;
1569;SDS011;778;50.120;8.698;2022-09-01T04:08:36;3.13;;;2.67;;
1569;SDS011;778;50.120;8.698;2022-09-01T04:11:11;2.80;;;2.43;;
1569;SDS011;778;50.120;8.698;2022-09-01T04:13:47;2.67;;;2.47;;
1569;SDS011;778;50.120;8.698;2022-09-01T04:16:17;4.00;;;2.60;;
1569;SDS011;778;50.120;8.698;2022-09-01T04:19:06;3.00;;;2.60;;
1569;SDS011;778;50.120;8.698;2022-09-01T04:21:41;2.80;;;2.60;;
1569;SDS011;778;50.120;8.698;2022-09-01T04:24:12;3.40;;;2.73;;
1569;SDS011;778;50.120;8.698;2022-09-01T04:26:44;2.63;;;2.43;;
1569;SDS011;778;50.120;8.698;2022-09-01T04:29:15;2.53;;;2.37;;
1569;SDS011;778;50.120;8.698;2022-09-01T04:31:45;2.67;;;2.50;;
1569;SDS011;778;50.120;8.698;2022-09-01T04:34:19;3.50;;;2.70;;
1569;SDS011;778;50.120;8.698;2022-09-01T04:36:50;3.50;;;2.50;;
1569;SDS011;778;50.120;8.698;2022-09-01T04:39:20;6.23;;;3.17;;
1569;SDS011;778;50.120;8.698;2022-09-01T04:41:50;2.40;;;2.20;;
1569;SDS011;778;50.120;8.698;2022-09-01T04:44:19;2.80;;;2.60;;
1569;SDS011;778;50.120;8.698;2022-09-01T04:46:48;3.03;;;2.83;;
1569;SDS011;778;50.120;8.698;2022-09-01T04:49:17;3.70;;;2.63;;
1569;SDS011;778;50.120;8.698;2022-09-01T04:51:52;2.80;;;2.57;;
1569;SDS011;778;50.120;8.698;2022-09-01T04:54:22;3.50;;;2.50;;
1569;SDS011;778;50.120;8.698;2022-09-01T04:56:52;3.90;;;2.77;;
1569;SDS011;778;50.120;8.698;2022-09-01T04:59:23;3.27;;;2.53;;
1569;SDS011;778;50.120;8.698;2022-09-01T05:01:58;3.47;;;2.63;;
1569;SDS011;778;50.120;8.698;2022-09-01T05:04:28;3.13;;;2.80;;
1569;SDS011;778;50.120;8.698;2022-09-01T05:07:00;3.27;;;2.90;;
1569;SDS011;778;50.120;8.698;2022-09-01T05:09:36;2.80;;;2.60;;
1569;SDS011;778;50.120;8.698;2022-09-01T05:12:25;2.30;;;2.17;;
1569;SDS011;778;50.120;8.698;2022-09-01T05:14:55;3.20;;;2.80;;
1569;SDS011;778;50.120;8.698;2022-09-01T05:17:23;3.80;;;3.40;;
1569;SDS011;778;50.120;8.698;2022-09-01T05:19:54;5.20;;;2.40;;
1569;SDS011;778;50.120;8.698;2022-09-01T05:22:23;6.10;;;3.17;;
1569;SDS011;778;50.120;8.698;2022-09-01T05:24:57;4.63;;;2.87;;
1569;SDS011;778;50.120;8.698;2022-09-01T05:27:43;3.00;;;2.50;;
1569;SDS011;778;50.120;8.698;2022-09-01T05:30:17;5.43;;;3.50;;
1569;SDS011;778;50.120;8.698;2022-09-01T05:32:46;5.00;;;2.80;;
1569;SDS011;778;50.120;8.698;2022-09-01T05:35:16;5.63;;;3.40;;
1569;SDS011;778;50.120;8.698;2022-09-01T05:37:46;4.10;;;3.23;;
1569;SDS011;778;50.120;8.698;2022-09-01T05:40:18;3.00;;;2.70;;
1569;SDS011;778;50.120;8.698;2022-09-01T05:42:50;2.73;;;2.53;;
1569;SDS011;778;50.120;8.698;2022-09-01T05:45:22;3.70;;;3.00;;
1569;SDS011;778;50.120;8.698;2022-09-01T05:47:52;3.40;;;3.00;;
1569;SDS011;778;50.120;8.698;2022-09-01T05:50:20;4.70;;;3.07;;
1569;SDS011;778;50.120;8.698;2022-09-01T05:52:49;3.30;;;3.10;;
1569;SDS011;778;50.120;8.698;2022-09-01T05:55:18;18.20;;;3.60;;
1569;SDS011;778;50.120;8.698;2022-09-01T05:57:48;4.63;;;3.40;;
1569;SDS011;778;50.120;8.698;2022-09-01T06:00:18;7.80;;;3.43;;
1569;SDS011;778;50.120;8.698;2022-09-01T06:02:48;4.47;;;2.60;;
1569;SDS011;778;50.120;8.698;2022-09-01T06:05:20;6.03;;;2.73;;
1569;SDS011;778;50.120;8.698;2022-09-01T06:07:51;3.60;;;2.23;;
1569;SDS011;778;50.120;8.698;2022-09-01T06:10:22;2.97;;;2.43;;
1569;SDS011;778;50.120;8.698;2022-09-01T06:12:53;2.77;;;2.50;;
1569;SDS011;778;50.120;8.698;2022-09-01T06:15:24;4.00;;;2.90;;
1569;SDS011;778;50.120;8.698;2022-09-01T06:17:55;4.00;;;2.37;;
1569;SDS011;778;50.120;8.698;2022-09-01T06:20:24;6.07;;;2.30;;
1569;SDS011;778;50.120;8.698;2022-09-01T06:22:53;6.57;;;2.80;;
1569;SDS011;778;50.120;8.698;2022-09-01T06:25:21;10.83;;;2.50;;
1569;SDS011;778;50.120;8.698;2022-09-01T06:27:52;4.93;;;2.73;;
1569;SDS011;778;50.120;8.698;2022-09-01T06:30:20;3.03;;;2.73;;
1569;SDS011;778;50.120;8.698;2022-09-01T06:33:03;3.50;;;2.20;;
1569;SDS011;778;50.120;8.698;2022-09-01T06:35:36;2.77;;;2.10;;
1569;SDS011;778;50.120;8.698;2022-09-01T06:38:06;2.43;;;2.23;;
1569;SDS011;778;50.120;8.698;2022-09-01T06:40:42;4.03;;;3.27;;
1569;SDS011;778;50.120;8.698;2022-09-01T06:43:12;4.13;;;3.40;;
1569;SDS011;778;50.120;8.698;2022-09-01T06:45:47;6.63;;;2.53;;
1569;SDS011;778;50.120;8.698;2022-09-01T06:48:26;4.57;;;2.47;;
1569;SDS011;778;50.120;8.698;2022-09-01T06:51:03;2.70;;;2.33;;
1569;SDS011;778;50.120;8.698;2022-09-01T06:53:48;5.67;;;3.47;;
1569;SDS011;778;50.120;8.698;2022-09-01T06:56:24;5.13;;;3.30;;
1569;SDS011;778;50.120;8.698;2022-09-01T06:58:58;3.50;;;2.57;;
1569;SDS011;778;50.120;8.698;2022-09-01T07:01:51;5.40;;;2.47;;
1569;SDS011;778;50.120;8.698;2022-09-01T07:04:51;3.27;;;2.43;;
1569;SDS011;778;50.120;8.698;2022-09-01T07:07:21;4.40;;;2.80;;
1569;SDS011;778;50.120;8.698;2022-09-01T07:10:46;6.13;;;2.80;;
1569;SDS011;778;50.120;8.698;2022-09-01T07:13:39;3.47;;;2.30;;
1569;SDS011;778;50.120;8.698;2022-09-01T07:16:29;5.37;;;2.23;;
1569;SDS011;778;50.120;8.698;2022-09-01T07:19:26;3.50;;;2.57;;
1569;SDS011;778;50.120;8.698;2022-09-01T07:22:16;3.27;;;2.43;;
1569;SDS011;778;50.120;8.698;2022-09-01T07:25:05;1.90;;;1.77;;
1569;SDS011;778;50.120;8.698;2022-09-01T07:27:52;2.50;;;2.13;;
1569;SDS011;778;50.120;8.698;2022-09-01T07:30:26;6.30;;;2.10;;
1569;SDS011;778;50.120;8.698;2022-09-01T07:32:57;7.33;;;3.03;;
1569;SDS011;778;50.120;8.698;2022-09-01T07:35:46;3.20;;;2.53;;
1569;SDS011;778;50.120;8.698;2022-09-01T07:38:36;6.30;;;2.50;;
1569;SDS011;778;50.120;8.698;2022-09-01T07:41:25;4.10;;;3.00;;
1569;SDS011;778;50.120;8.698;2022-09-01T07:44:52;2.50;;;1.80;;
1569;SDS011;778;50.120;8.698;2022-09-01T07:47:51;1.80;;;1.70;;
1569;SDS011;778;50.120;8.698;2022-09-01T07:50:21;3.37;;;1.90;;
1569;SDS011;778;50.120;8.698;2022-09-01T07:53:06;3.20;;;2.13;;
1569;SDS011;778;50.120;8.698;2022-09-01T07:55:39;2.27;;;1.97;;
1569;SDS011;778;50.120;8.698;2022-09-01T07:58:09;2.47;;;2.27;;
1569;SDS011;778;50.120;8.698;2022-09-01T08:00:42;5.83;;;2.60;;
1569;SDS011;778;50.120;8.698;2022-09-01T08:03:15;2.80;;;2.20;;
1569;SDS011;778;50.120;8.698;2022-09-01T08:05:46;12.13;;;2.50;;
1569;SDS011;778;50.120;8.698;2022-09-01T08:08:19;4.30;;;2.63;;
1569;SDS011;778;50.120;8.698;2022-09-01T08:10:56;2.73;;;2.53;;
1569;SDS011;778;50.120;8.698;2022-09-01T08:13:32;3.10;;;2.40;;
1569;SDS011;778;50.120;8.698;2022-09-01T08:16:07;4.20;;;2.30;;
1569;SDS011;778;50.120;8.698;2022-09-01T08:18:46;3.03;;;2.20;;
1569;SDS011;778;50.120;8.698;2022-09-01T08:21:35;3.57;;;2.27;;
1569;SDS011;778;50.120;8.698;2022-09-01T08:24:20;2.57;;;2.20;;
1569;SDS011;778;50.120;8.698;2022-09-01T08:26:50;2.90;;;2.10;;
1569;SDS011;778;50.120;8.698;2022-09-01T08:29:18;2.17;;;2.00;;
1569;SDS011;778;50.120;8.698;2022-09-01T08:31:47;2.47;;;2.20;;
1569;SDS011;778;50.120;8.698;2022-09-01T08:34:16;2.57;;;2.20;;
1569;SDS011;778;50.120;8.698;2022-09-01T08:36:45;4.17;;;2.57;;
1569;SDS011;778;50.120;8.698;2022-09-01T08:39:14;3.50;;;2.23;;
1569;SDS011;778;50.120;8.698;2022-09-01T08:41:43;3.20;;;2.07;;
1569;SDS011;778;50.120;8.698;2022-09-01T08:44:26;6.30;;;2.57;;
1569;SDS011;778;50.120;8.698;2022-09-01T08:47:04;2.50;;;1.73;;
1569;SDS011;778;50.120;8.698;2022-09-01T08:49:41;4.30;;;2.60;;
1569;SDS011;778;50.120;8.698;2022-09-01T08:52:22;2.80;;;2.20;;
1569;SDS011;778;50.120;8.698;2022-09-01T08:55:00;3.50;;;2.27;;
1569;SDS011;778;50.120;8.698;2022-09-01T08:57:35;5.47;;;2.10;;
1569;SDS011;778;50.120;8.698;2022-09-01T09:00:27;8.20;;;2.37;;
1569;SDS011;778;50.120;8.698;2022-09-01T09:03:08;2.20;;;2.00;;
1569;SDS011;778;50.120;8.698;2022-09-01T09:06:02;7.47;;;2.43;;
1569;SDS011;778;50.120;8.698;2022-09-01T09:08:43;3.97;;;2.20;;
1569;SDS011;778;50.120;8.698;2022-09-01T09:11:43;2.40;;;2.03;;
1569;SDS011;778;50.120;8.698;2022-09-01T09:14:47;3.30;;;2.40;;
1569;SDS011;778;50.120;8.698;2022-09-01T09:17:27;2.90;;;2.40;;
1569;SDS011;778;50.120;8.698;2022-09-01T09:20:02;6.23;;;2.10;;
1569;SDS011;778;50.120;8.698;2022-09-01T09:22:32;4.70;;;3.37;;
1569;SDS011;778;50.120;8.698;2022-09-01T09:25:03;4.27;;;2.13;;
1569;SDS011;778;50.120;8.698;2022-09-01T09:27:37;2.40;;;2.10;;
1569;SDS011;778;50.120;8.698;2022-09-01T09:30:10;7.10;;;2.27;;
1569;SDS011;778;50.120;8.698;2022-09-01T09:32:44;3.00;;;2.20;;
1569;SDS011;778;50.120;8.698;2022-09-01T09:35:38;2.03;;;1.83;;
1569;SDS011;778;50.120;8.698;2022-09-01T09:38:16;3.30;;;2.23;;
1569;SDS011;778;50.120;8.698;2022-09-01T09:40:58;2.53;;;2.33;;
1569;SDS011;778;50.120;8.698;2022-09-01T09:43:51;2.37;;;2.03;;
1569;SDS011;778;50.120;8.698;2022-09-01T09:46:27;6.20;;;2.77;;
1569;SDS011;778;50.120;8.698;2022-09-01T09:49:14;5.03;;;2.43;;
1569;SDS011;778;50.120;8.698;2022-09-01T09:52:12;2.80;;;2.50;;
1569;SDS011;778;50.120;8.698;2022-09-01T09:54:57;3.07;;;2.17;;
1569;SDS011;778;50.120;8.698;2022-09-01T09:57:30;2.57;;;1.83;;
1569;SDS011;778;50.120;8.698;2022-09-01T10:00:06;2.50;;;2.00;;
1569;SDS011;778;50.120;8.698;2022-09-01T10:02:55;2.30;;;1.70;;
1569;SDS011;778;50.120;8.698;2022-09-01T10:05:36;2.70;;;2.00;;
1569;SDS011;778;50.120;8.698;2022-09-01T10:08:09;5.43;;;2.30;;
1569;SDS011;778;50.120;8.698;2022-09-01T10:10:47;2.27;;;2.07;;
1569;SDS011;778;50.120;8.698;2022-09-01T10:13:24;3.63;;;2.30;;
1569;SDS011;778;50.120;8.698;2022-09-01T10:15:59;4.47;;;3.13;;
1569;SDS011;778;50.120;8.698;2022-09-01T10:18:36;2.00;;;1.90;;
1569;SDS011;778;50.120;8.698;2022-09-01T10:21:09;1.90;;;1.80;;
1569;SDS011;778;50.120;8.698;2022-09-01T10:23:42;5.30;;;3.00;;
1569;SDS011;778;50.120;8.698;2022-09-01T10:26:12;2.77;;;2.57;;
1569;SDS011;778;50.120;8.698;2022-09-01T10:28:45;3.10;;;2.20;;
1569;SDS011;778;50.120;8.698;2022-09-01T10:31:20;2.90;;;2.23;;
1569;SDS011;778;50.120;8.698;2022-09-01T10:34:00;2.80;;;2.50;;
1569;SDS011;778;50.120;8.698;2022-09-01T10:36:31;2.23;;;1.70;;
1569;SDS011;778;50.120;8.698;2022-09-01T10:39:00;3.00;;;1.83;;
1569;SDS011;778;50.120;8.698;2022-09-01T10:41:45;3.90;;;2.63;;
1569;SDS011;778;50.120;8.698;2022-09-01T10:44:26;2.47;;;2.17;;
1569;SDS011;778;50.120;8.698;2022-09-01T10:47:00;5.60;;;2.40;;
1569;SDS011;778;50.120;8.698;2022-09-01T10:55:31;2.03;;;1.87;;
1569;SDS011;778;50.120;8.698;2022-09-01T10:58:11;1.90;;;1.80;;
1569;SDS011;778;50.120;8.698;2022-09-01T11:01:16;2.70;;;1.70;;
1569;SDS011;778;50.120;8.698;2022-09-01T11:07:42;2.47;;;2.27;;
1569;SDS011;778;50.120;8.698;2022-09-01T11:10:43;2.33;;;2.13;;
1569;SDS011;778;50.120;8.698;2022-09-01T11:19:19;3.23;;;1.90;;
1569;SDS011;778;50.120;8.698;2022-09-01T11:22:03;2.27;;;1.57;;
1569;SDS011;778;50.120;8.698;2022-09-01T11:25:04;1.60;;;1.50;;
1569;SDS011;778;50.120;8.698;2022-09-01T11:28:09;3.40;;;1.80;;
1569;SDS011;778;50.120;8.698;2022-09-01T11:31:20;2.13;;;1.63;;
1569;SDS011;778;50.120;8.698;2022-09-01T11:33:58;2.03;;;1.83;;
1569;SDS011;778;50.120;8.698;2022-09-01T11:36:43;3.07;;;1.73;;
1569;SDS011;778;50.120;8.698;2022-09-01T11:39:28;1.80;;;1.70;;
1569;SDS011;778;50.120;8.698;2022-09-01T11:42:05;1.90;;;1.63;;
1569;SDS011;778;50.120;8.698;2022-09-01T11:44:41;2.13;;;2.00;;
1569;SDS011;778;50.120;8.698;2022-09-01T11:47:17;2.30;;;1.73;;
1569;SDS011;778;50.120;8.698;2022-09-01T11:49:49;4.70;;;1.80;;
1569;SDS011;778;50.120;8.698;2022-09-01T11:52:22;2.87;;;2.20;;
1569;SDS011;778;50.120;8.698;2022-09-01T11:54:54;2.23;;;2.10;;
1569;SDS011;778;50.120;8.698;2022-09-01T11:57:25;1.80;;;1.67;;
1569;SDS011;778;50.120;8.698;2022-09-01T11:59:58;2.33;;;1.90;;
1569;SDS011;778;50.120;8.698;2022-09-01T12:02:41;2.20;;;2.00;;
1569;SDS011;778;50.120;8.698;2022-09-01T12:05:22;2.63;;;2.43;;
1569;SDS011;778;50.120;8.698;2022-09-01T12:07:57;3.90;;;2.50;;
1569;SDS011;778;50.120;8.698;2022-09-01T12:10:31;1.97;;;1.83;;
1569;SDS011;778;50.120;8.698;2022-09-01T12:13:04;2.53;;;2.33;;
1569;SDS011;778;50.120;8.698;2022-09-01T12:15:36;2.30;;;2.10;;
1569;SDS011;778;50.120;8.698;2022-09-01T12:18:28;3.23;;;2.00;;
1569;SDS011;778;50.120;8.698;2022-09-01T12:21:02;3.47;;;2.10;;
1569;SDS011;778;50.120;8.698;2022-09-01T12:23:34;2.20;;;1.83;;
1569;SDS011;778;50.120;8.698;2022-09-01T12:26:07;2.37;;;2.17;;
1569;SDS011;778;50.120;8.698;2022-09-01T12:28:40;2.30;;;2.10;;
1569;SDS011;778;50.120;8.698;2022-09-01T12:31:11;2.00;;;1.90;;
1569;SDS011;778;50.120;8.698;2022-09-01T12:33:42;3.47;;;2.10;;
1569;SDS011;778;50.120;8.698;2022-09-01T12:36:12;8.90;;;2.20;;
1569;SDS011;778;50.120;8.698;2022-09-01T12:38:52;2.23;;;2.03;;
1569;SDS011;778;50.120;8.698;2022-09-01T12:41:25;2.70;;;2.10;;
1569;SDS011;778;50.120;8.698;2022-09-01T12:46:57;2.30;;;2.10;;
1569;SDS011;778;50.120;8.698;2022-09-01T12:49:35;3.13;;;2.03;;
1569;SDS011;778;50.120;8.698;2022-09-01T12:52:19;3.60;;;2.00;;
1569;SDS011;778;50.120;8.698;2022-09-01T12:54:54;3.03;;;2.37;;
1569;SDS011;778;50.120;8.698;2022-09-01T12:58:02;4.00;;;2.50;;
1569;SDS011;778;50.120;8.698;2022-09-01T13:00:34;2.33;;;2.07;;
1569;SDS011;778;50.120;8.698;2022-09-01T13:03:15;3.53;;;2.43;;
1569;SDS011;778;50.120;8.698;2022-09-01T13:05:48;2.43;;;2.10;;
1569;SDS011;778;50.120;8.698;2022-09-01T13:08:20;3.10;;;1.93;;
1569;SDS011;778;50.120;8.698;2022-09-01T13:10:53;2.43;;;2.20;;
1569;SDS011;778;50.120;8.698;2022-09-01T13:13:28;4.33;;;3.67;;
1569;SDS011;778;50.120;8.698;2022-09-01T13:15:58;5.00;;;2.27;;
1569;SDS011;778;50.120;8.698;2022-09-01T13:18:39;2.27;;;2.07;;
1569;SDS011;778;50.120;8.698;2022-09-01T13:21:30;2.43;;;2.17;;
1569;SDS011;778;50.120;8.698;2022-09-01T13:24:01;3.20;;;2.00;;
1569;SDS011;778;50.120;8.698;2022-09-01T13:26:32;2.40;;;2.20;;
1569;SDS011;778;50.120;8.698;2022-09-01T13:29:03;2.47;;;2.27;;
1569;SDS011;778;50.120;8.698;2022-09-01T13:31:31;2.40;;;2.23;;
1569;SDS011;778;50.120;8.698;2022-09-01T13:34:01;3.37;;;2.13;;
1569;SDS011;778;50.120;8.698;2022-09-01T13:36:49;2.43;;;2.20;;
1569;SDS011;778;50.120;8.698;2022-09-01T13:39:18;5.23;;;2.40;;
1569;SDS011;778;50.120;8.698;2022-09-01T13:41:48;2.30;;;2.10;;
1569;SDS011;778;50.120;8.698;2022-09-01T13:44:18;5.03;;;2.53;;
1569;SDS011;778;50.120;8.698;2022-09-01T13:46:46;1.97;;;1.87;;
1569;SDS011;778;50.120;8.698;2022-09-01T13:49:35;2.30;;;2.10;;
1569;SDS011;778;50.120;8.698;2022-09-01T13:52:09;2.57;;;2.37;;
1569;SDS011;778;50.120;8.698;2022-09-01T13:54:39;3.03;;;2.23;;
1569;SDS011;778;50.120;8.698;2022-09-01T13:57:09;3.20;;;2.20;;
1569;SDS011;778;50.120;8.698;2022-09-01T13:59:40;2.17;;;1.97;;
1569;SDS011;778;50.120;8.698;2022-09-01T14:02:09;2.77;;;2.57;;
1569;SDS011;778;50.120;8.698;2022-09-01T14:04:37;2.40;;;2.20;;
1569;SDS011;778;50.120;8.698;2022-09-01T14:07:06;3.03;;;2.03;;
1569;SDS011;778;50.120;8.698;2022-09-01T14:09:34;4.40;;;2.20;;
1569;SDS011;778;50.120;8.698;2022-09-01T14:12:03;2.27;;;2.17;;
1569;SDS011;778;50.120;8.698;2022-09-01T14:14:32;2.73;;;2.53;;
1569;SDS011;778;50.120;8.698;2022-09-01T14:17:22;3.37;;;2.10;;
1569;SDS011;778;50.120;8.698;2022-09-01T14:19:50;2.30;;;2.10;;
1569;SDS011;778;50.120;8.698;2022-09-01T14:22:19;2.30;;;2.20;;
1569;SDS011;778;50.120;8.698;2022-09-01T14:24:47;4.00;;;2.50;;
1569;SDS011;778;50.120;8.698;2022-09-01T14:27:16;2.10;;;2.00;;
1569;SDS011;778;50.120;8.698;2022-09-01T14:29:47;2.67;;;2.10;;
1569;SDS011;778;50.120;8.698;2022-09-01T14:32:22;2.60;;;2.40;;
1569;SDS011;778;50.120;8.698;2022-09-01T14:34:52;4.07;;;2.27;;
1569;SDS011;778;50.120;8.698;2022-09-01T14:37:21;2.93;;;2.23;;
1569;SDS011;778;50.120;8.698;2022-09-01T14:39:51;2.80;;;2.50;;
1569;SDS011;778;50.120;8.698;2022-09-01T14:42:22;2.53;;;2.33;;
1569;SDS011;778;50.120;8.698;2022-09-01T14:44:54;4.40;;;2.43;;
1569;SDS011;778;50.120;8.698;2022-09-01T14:47:24;4.13;;;2.47;;
1569;SDS011;778;50.120;8.698;2022-09-01T14:49:53;3.30;;;2.50;;
1569;SDS011;778;50.120;8.698;2022-09-01T14:52:21;3.00;;;2.70;;
1569;SDS011;778;50.120;8.698;2022-09-01T14:54:50;3.27;;;2.17;;
1569;SDS011;778;50.120;8.698;2022-09-01T14:57:18;6.63;;;3.07;;
1569;SDS011;778;50.120;8.698;2022-09-01T15:00:03;1.83;;;1.73;;
1569;SDS011;778;50.120;8.698;2022-09-01T15:02:39;2.50;;;2.30;;
1569;SDS011;778;50.120;8.698;2022-09-01T15:05:09;2.27;;;2.10;;
1569;SDS011;778;50.120;8.698;2022-09-01T15:07:39;2.50;;;2.30;;
1569;SDS011;778;50.120;8.698;2022-09-01T15:10:10;2.53;;;1.93;;
1569;SDS011;778;50.120;8.698;2022-09-01T15:12:50;2.80;;;2.00;;
1569;SDS011;778;50.120;8.698;2022-09-01T15:15:21;2.83;;;2.00;;
1569;SDS011;778;50.120;8.698;2022-09-01T15:17:52;3.03;;;2.00;;
1569;SDS011;778;50.120;8.698;2022-09-01T15:20:22;2.63;;;2.43;;
1569;SDS011;778;50.120;8.698;2022-09-01T15:23:09;2.97;;;2.70;;
1569;SDS011;778;50.120;8.698;2022-09-01T15:25:38;3.10;;;2.47;;
1569;SDS011;778;50.120;8.698;2022-09-01T15:28:07;3.67;;;2.33;;
1569;SDS011;778;50.120;8.698;2022-09-01T15:30:36;4.50;;;2.17;;
1569;SDS011;778;50.120;8.698;2022-09-01T15:33:07;3.10;;;1.87;;
1569;SDS011;778;50.120;8.698;2022-09-01T15:35:41;2.37;;;2.20;;
1569;SDS011;778;50.120;8.698;2022-09-01T15:38:10;3.50;;;2.00;;
1569;SDS011;778;50.120;8.698;2022-09-01T15:40:44;2.77;;;2.17;;
1569;SDS011;778;50.120;8.698;2022-09-01T15:43:23;2.47;;;2.27;;
1569;SDS011;778;50.120;8.698;2022-09-01T15:45:53;2.90;;;2.00;;
1569;SDS011;778;50.120;8.698;2022-09-01T15:48:25;2.70;;;2.30;;
1569;SDS011;778;50.120;8.698;2022-09-01T15:50:59;2.53;;;2.30;;
1569;SDS011;778;50.120;8.698;2022-09-01T15:53:56;3.70;;;2.43;;
1569;SDS011;778;50.120;8.698;2022-09-01T15:56:27;4.40;;;1.97;;
1569;SDS011;778;50.120;8.698;2022-09-01T15:58:57;3.80;;;2.47;;
1569;SDS011;778;50.120;8.698;2022-09-01T16:01:28;2.53;;;2.33;;
1569;SDS011;778;50.120;8.698;2022-09-01T16:04:01;2.30;;;2.20;;
1569;SDS011;778;50.120;8.698;2022-09-01T16:06:31;2.77;;;2.57;;
1569;SDS011;778;50.120;8.698;2022-09-01T16:09:00;2.40;;;2.20;;
1569;SDS011;778;50.120;8.698;2022-09-01T16:11:29;2.60;;;2.40;;
1569;SDS011;778;50.120;8.698;2022-09-01T16:13:57;2.50;;;2.30;;
1569;SDS011;778;50.120;8.698;2022-09-01T16:16:39;2.20;;;2.00;;
1569;SDS011;778;50.120;8.698;2022-09-01T16:19:22;4.30;;;2.70;;
1569;SDS011;778;50.120;8.698;2022-09-01T16:22:00;2.60;;;2.40;;
1569;SDS011;778;50.120;8.698;2022-09-01T16:24:38;1.90;;;1.80;;
1569;SDS011;778;50.120;8.698;2022-09-01T16:27:11;2.67;;;1.83;;
1569;SDS011;778;50.120;8.698;2022-09-01T16:29:44;2.90;;;2.33;;
1569;SDS011;778;50.120;8.698;2022-09-01T16:32:16;4.87;;;2.40;;
1569;SDS011;778;50.120;8.698;2022-09-01T16:34:50;4.27;;;2.77;;
1569;SDS011;778;50.120;8.698;2022-09-01T16:37:25;3.30;;;2.50;;
1569;SDS011;778;50.120;8.698;2022-09-01T16:40:11;3.30;;;3.00;;